createdAt,value
2019-04-16T00:00:17.497Z,33.88
2019-04-16T00:02:27.535Z,33.33
2019-04-16T00:04:49.709Z,32.38
2019-04-16T00:07:13.468Z,33.02
2019-04-16T00:09:32.610Z,33.25
2019-04-16T00:11:42.518Z,33.60
2019-04-16T00:13:52.424Z,32.05
2019-04-16T00:15:58.445Z,31.37
2019-04-16T00:18:04.123Z,33.55
2019-04-16T00:20:10.570Z,31.82
2019-04-16T00:22:17.717Z,32.08
2019-04-16T00:24:27.836Z,31.25
2019-04-16T00:26:33.650Z,30.50
2019-04-16T00:28:40.220Z,31.80
2019-04-16T00:30:45.937Z,33.92
2019-04-16T00:32:51.532Z,32.58
2019-04-16T00:34:57.144Z,32.93
2019-04-16T00:37:02.729Z,32.25
2019-04-16T00:39:08.301Z,33.53
2019-04-16T00:41:14.445Z,34.30
2019-04-16T00:43:20.041Z,33.63
2019-04-16T00:45:25.682Z,34.30
2019-04-16T00:47:32.289Z,32.98
2019-04-16T00:49:38.170Z,36.23
2019-04-16T00:51:43.843Z,32.00
2019-04-16T00:53:49.357Z,32.73
2019-04-16T00:55:54.866Z,32.95
2019-04-16T00:58:00.395Z,32.15
2019-04-16T01:00:09.154Z,32.88
2019-04-16T01:02:15.142Z,31.27
2019-04-16T01:04:20.735Z,29.15
2019-04-16T01:06:26.355Z,29.25
2019-04-16T01:08:31.861Z,28.98
2019-04-16T01:10:37.423Z,29.27
2019-04-16T01:12:42.962Z,30.27
2019-04-16T01:14:48.473Z,31.40
2019-04-16T01:16:54.927Z,29.87
2019-04-16T01:19:00.489Z,28.98
2019-04-16T01:21:06.064Z,30.40
2019-04-16T01:23:11.712Z,29.15
2019-04-16T01:25:17.430Z,28.83
2019-04-16T01:27:28.551Z,28.17
2019-04-16T01:29:33.956Z,28.20
2019-04-16T01:31:55.918Z,25.48
2019-04-16T01:34:15.293Z,25.95
2019-04-16T01:36:24.004Z,26.12
2019-04-16T01:38:38.325Z,25.30
2019-04-16T01:40:47.370Z,27.20
2019-04-16T01:42:54.711Z,26.30
2019-04-16T01:45:00.703Z,26.52
2019-04-16T01:47:06.709Z,27.02
2019-04-16T01:49:12.230Z,27.32
2019-04-16T01:51:29.613Z,28.55
2019-04-16T01:53:35.140Z,26.97
2019-04-16T01:55:42.476Z,26.45
2019-04-16T01:57:47.937Z,26.60
2019-04-16T01:59:53.513Z,28.27
2019-04-16T02:02:00.256Z,27.35
2019-04-16T02:04:05.837Z,29.98
2019-04-16T02:06:11.627Z,27.60
2019-04-16T02:08:17.201Z,27.62
2019-04-16T02:10:22.764Z,28.95
2019-04-16T02:12:28.397Z,30.23
2019-04-16T02:14:33.980Z,29.63
2019-04-16T02:16:39.548Z,29.05
2019-04-16T02:18:45.117Z,29.40
2019-04-16T02:20:50.691Z,29.70
2019-04-16T02:22:56.274Z,29.23
2019-04-16T02:25:02.575Z,29.48
2019-04-16T02:27:27.517Z,30.05
2019-04-16T02:29:33.087Z,29.77
2019-04-16T02:31:38.609Z,29.90
2019-04-16T02:33:44.122Z,29.65
2019-04-16T02:35:49.721Z,28.83
2019-04-16T02:37:55.248Z,28.98
2019-04-16T02:40:01.052Z,27.98
2019-04-16T02:42:06.935Z,26.00
2019-04-16T02:44:15.931Z,26.90
2019-04-16T02:46:19.823Z,25.40
2019-04-16T02:48:25.345Z,25.95
2019-04-16T02:50:35.545Z,25.48
2019-04-16T02:52:51.168Z,26.25
2019-04-16T02:55:10.900Z,25.12
2019-04-16T02:57:25.808Z,25.20
2019-04-16T02:59:32.105Z,26.02
2019-04-16T03:01:42.220Z,25.37
2019-04-16T03:03:49.460Z,25.23
2019-04-16T03:06:00.697Z,26.23
2019-04-16T03:08:05.055Z,26.15
2019-04-16T03:10:13.262Z,25.17
2019-04-16T03:12:20.994Z,26.25
2019-04-16T03:14:29.720Z,27.50
2019-04-16T03:16:38.756Z,27.90
2019-04-16T03:18:47.391Z,28.52
2019-04-16T03:20:55.621Z,27.48
2019-04-16T03:23:05.161Z,27.80
2019-04-16T03:25:12.583Z,27.55
2019-04-16T03:27:15.828Z,26.60
2019-04-16T03:29:21.429Z,27.32
2019-04-16T03:31:26.961Z,25.62
2019-04-16T03:33:32.534Z,24.70
2019-04-16T03:35:38.188Z,24.92
2019-04-16T03:37:43.820Z,25.20
2019-04-16T03:39:49.336Z,25.20
2019-04-16T03:41:56.230Z,28.38
2019-04-16T03:44:04.101Z,25.02
2019-04-16T03:46:12.151Z,25.02
2019-04-16T03:48:16.500Z,26.48
2019-04-16T03:50:22.021Z,26.15
2019-04-16T03:52:27.520Z,26.00
2019-04-16T03:54:33.039Z,26.77
2019-04-16T03:56:38.600Z,26.87
2019-04-16T03:58:44.187Z,25.85
2019-04-16T04:00:49.782Z,25.65
2019-04-16T04:02:55.487Z,25.20
2019-04-16T04:05:04.347Z,26.87
2019-04-16T04:07:08.778Z,26.12
2019-04-16T04:09:18.981Z,26.12
2019-04-16T04:11:23.737Z,26.62
2019-04-16T04:13:29.323Z,25.27
2019-04-16T04:15:34.933Z,25.85
2019-04-16T04:17:40.581Z,26.27
2019-04-16T04:19:46.833Z,28.65
2019-04-16T04:21:53.696Z,28.02
2019-04-16T04:24:00.697Z,27.17
2019-04-16T04:26:08.925Z,27.48
2019-04-16T04:28:18.762Z,29.27
2019-04-16T04:30:22.556Z,29.50
2019-04-16T04:32:28.122Z,27.05
2019-04-16T04:34:33.720Z,29.52
2019-04-16T04:36:39.232Z,30.48
2019-04-16T04:38:44.743Z,30.20
2019-04-16T04:40:51.416Z,31.05
2019-04-16T04:42:57.731Z,30.90
2019-04-16T04:45:09.165Z,33.42
2019-04-16T04:47:15.536Z,32.85
2019-04-16T04:49:20.235Z,32.78
2019-04-16T04:51:25.856Z,34.50
2019-04-16T04:53:31.435Z,36.20
2019-04-16T04:55:37.959Z,35.80
2019-04-16T04:57:43.489Z,35.15
2019-04-16T04:59:49.060Z,36.68
2019-04-16T05:01:54.645Z,34.73
2019-04-16T05:04:20.624Z,33.50
2019-04-16T05:06:30.475Z,32.88
2019-04-16T05:08:35.996Z,31.52
2019-04-16T05:10:43.294Z,30.17
2019-04-16T05:12:52.605Z,28.40
2019-04-16T05:14:58.515Z,27.50
2019-04-16T05:17:03.547Z,28.85
2019-04-16T05:19:13.820Z,28.95
2019-04-16T05:21:19.002Z,27.00
2019-04-16T05:23:26.003Z,27.05
2019-04-16T05:25:34.082Z,26.40
2019-04-16T05:27:41.070Z,24.15
2019-04-16T05:29:48.879Z,25.68
2019-04-16T05:31:56.954Z,23.27
2019-04-16T05:34:02.416Z,22.82
2019-04-16T05:36:10.968Z,22.35
2019-04-16T05:38:15.200Z,23.20
2019-04-16T05:40:20.843Z,23.73
2019-04-16T05:42:26.424Z,22.85
2019-04-16T05:44:33.996Z,22.20
2019-04-16T05:46:41.778Z,21.52
2019-04-16T05:48:46.250Z,18.70
2019-04-16T05:50:51.780Z,19.10
2019-04-16T05:52:57.492Z,20.15
2019-04-16T05:55:19.297Z,19.55
2019-04-16T05:57:27.483Z,19.07
2019-04-16T05:59:34.420Z,19.92
2019-04-16T06:01:45.394Z,20.88
2019-04-16T06:03:52.870Z,19.80
2019-04-16T06:05:59.255Z,20.00
2019-04-16T06:08:10.961Z,19.10
2019-04-16T06:10:17.843Z,19.32
2019-04-16T06:12:25.584Z,18.87
2019-04-16T06:14:42.113Z,20.77
2019-04-16T06:16:49.304Z,19.98
2019-04-16T06:18:59.180Z,19.80
2019-04-16T06:21:12.211Z,20.50
2019-04-16T06:23:32.618Z,19.82
2019-04-16T06:25:41.409Z,19.48
2019-04-16T06:27:51.503Z,19.87
2019-04-16T06:30:01.205Z,18.98
2019-04-16T06:32:11.917Z,19.20
2019-04-16T06:34:25.320Z,18.73
2019-04-16T06:36:35.215Z,18.75
2019-04-16T06:38:44.849Z,18.35
2019-04-16T06:41:10.508Z,17.90
2019-04-16T06:43:25.264Z,18.95
2019-04-16T06:45:29.234Z,18.75
2019-04-16T06:47:52.548Z,17.50
2019-04-16T06:49:59.707Z,17.30
2019-04-16T06:52:16.054Z,17.17
2019-04-16T06:54:31.862Z,16.42
2019-04-16T06:56:37.393Z,17.45
2019-04-16T06:58:51.252Z,17.25
2019-04-16T07:01:06.928Z,16.80
2019-04-16T07:03:16.836Z,16.10
2019-04-16T07:05:23.990Z,17.30
2019-04-16T07:07:39.505Z,15.55
2019-04-16T07:09:41.844Z,15.98
2019-04-16T07:12:01.257Z,15.90
2019-04-16T07:14:06.855Z,15.35
2019-04-16T07:16:12.477Z,15.35
2019-04-16T07:18:20.516Z,13.55
2019-04-16T07:20:25.212Z,13.22
2019-04-16T07:22:30.777Z,14.60
2019-04-16T07:24:37.606Z,15.08
2019-04-16T07:26:47.870Z,13.05
2019-04-16T07:29:12.299Z,13.68
2019-04-16T07:31:34.247Z,11.28
2019-04-16T07:33:58.612Z,12.37
2019-04-16T07:36:24.157Z,13.15
2019-04-16T07:38:40.457Z,12.05
2019-04-16T07:40:53.572Z,11.80
2019-04-16T07:43:03.504Z,12.23
2019-04-16T07:45:26.228Z,11.10
2019-04-16T07:47:33.468Z,10.40
2019-04-16T07:49:43.660Z,10.28
2019-04-16T07:51:56.794Z,9.80
2019-04-16T07:54:03.975Z,8.65
2019-04-16T07:56:17.006Z,9.30
2019-04-16T07:58:22.528Z,9.18
2019-04-16T08:00:28.192Z,11.88
2019-04-16T08:02:33.814Z,7.00
2019-04-16T08:04:40.505Z,7.92
2019-04-16T08:06:47.233Z,10.05
2019-04-16T08:08:53.956Z,12.15
2019-04-16T08:11:00.012Z,9.93
2019-04-16T08:13:07.312Z,9.75
2019-04-16T08:15:15.249Z,8.55
2019-04-16T08:17:20.373Z,10.23
2019-04-16T08:19:36.806Z,9.55
2019-04-16T08:21:33.072Z,9.68
2019-04-16T08:23:40.234Z,9.20
2019-04-16T08:25:45.753Z,9.98
2019-04-16T08:27:54.067Z,8.85
2019-04-16T08:30:02.211Z,8.10
2019-04-16T08:32:05.936Z,7.85
2019-04-16T08:34:11.724Z,8.35
2019-04-16T08:36:17.288Z,7.35
2019-04-16T08:38:25.898Z,7.65
2019-04-16T08:40:29.993Z,7.25
2019-04-16T08:42:44.164Z,7.40
2019-04-16T08:44:42.752Z,7.45
2019-04-16T08:46:48.268Z,7.92
2019-04-16T08:48:54.344Z,7.03
2019-04-16T08:51:04.304Z,7.87
2019-04-16T08:53:13.292Z,8.10
2019-04-16T08:55:15.686Z,10.18
2019-04-16T08:57:21.213Z,7.78
2019-04-16T08:59:26.769Z,7.22
2019-04-16T09:04:02.877Z,8.20
2019-04-16T09:06:13.247Z,6.47
2019-04-16T09:08:22.173Z,7.33
2019-04-16T09:10:30.064Z,6.25
2019-04-16T09:12:34.275Z,6.55
2019-04-16T09:14:41.464Z,5.90
2019-04-16T09:16:48.665Z,6.05
2019-04-16T09:18:55.869Z,5.30
2019-04-16T09:21:01.473Z,5.78
2019-04-16T09:23:06.967Z,5.62
2019-04-16T09:25:23.261Z,5.60
2019-04-16T09:27:34.035Z,5.12
2019-04-16T09:29:51.090Z,6.25
2019-04-16T09:32:10.325Z,5.90
2019-04-16T09:34:17.478Z,6.00
2019-04-16T09:36:27.505Z,6.70
2019-04-16T09:38:45.538Z,6.12
2019-04-16T09:40:58.124Z,5.97
2019-04-16T09:43:17.525Z,6.33
2019-04-16T09:45:19.189Z,6.42
2019-04-16T09:47:24.774Z,5.80
2019-04-16T09:49:30.293Z,6.05
2019-04-16T09:51:35.927Z,6.15
2019-04-16T09:53:41.441Z,5.90
2019-04-16T09:55:47.608Z,6.55
2019-04-16T09:57:54.200Z,6.28
2019-04-16T10:00:00.975Z,6.47
2019-04-16T10:02:13.009Z,6.40
2019-04-16T10:04:20.772Z,6.50
2019-04-16T10:06:26.634Z,6.00
2019-04-16T10:08:32.177Z,6.35
2019-04-16T10:10:37.776Z,6.70
2019-04-16T10:12:43.303Z,7.05
2019-04-16T10:14:48.912Z,6.85
2019-04-16T10:16:54.519Z,6.58
2019-04-16T10:19:00.101Z,6.53
2019-04-16T10:21:05.784Z,6.75
2019-04-16T10:23:15.568Z,7.00
2019-04-16T10:25:21.104Z,6.25
2019-04-16T10:27:31.296Z,6.92
2019-04-16T10:29:35.445Z,7.53
2019-04-16T10:31:41.095Z,7.17
2019-04-16T10:33:46.698Z,7.60
2019-04-16T10:35:52.357Z,6.62
2019-04-16T10:37:59.451Z,6.17
2019-04-16T10:40:14.225Z,7.40
2019-04-16T10:42:37.383Z,7.08
2019-04-16T10:45:00.831Z,7.50
2019-04-16T10:47:16.703Z,6.95
2019-04-16T10:49:34.870Z,7.37
2019-04-16T10:51:47.591Z,7.10
2019-04-16T10:54:09.626Z,7.00
2019-04-16T10:56:32.978Z,7.10
2019-04-16T10:58:45.972Z,8.88
2019-04-16T11:01:08.336Z,7.00
2019-04-16T11:03:15.580Z,7.25
2019-04-16T11:05:25.840Z,7.83
2019-04-16T11:07:36.044Z,7.90
2019-04-16T11:09:41.729Z,6.85
2019-04-16T11:11:48.966Z,7.42
2019-04-16T11:14:00.015Z,7.83
2019-04-16T11:16:03.545Z,7.62
2019-04-16T11:18:09.459Z,7.22
2019-04-16T11:20:15.438Z,6.90
2019-04-16T11:22:21.181Z,6.78
2019-04-16T11:24:27.860Z,6.90
2019-04-16T11:26:33.576Z,6.12
2019-04-16T11:28:39.199Z,6.72
2019-04-16T11:30:48.717Z,6.30
2019-04-16T11:32:53.740Z,6.00
2019-04-16T11:34:59.306Z,6.40
2019-04-16T11:37:08.098Z,6.95
2019-04-16T11:39:12.641Z,6.47
2019-04-16T11:41:18.378Z,5.70
2019-04-16T11:43:23.973Z,6.05
2019-04-16T11:45:29.679Z,5.80
2019-04-16T11:47:35.211Z,5.92
2019-04-16T11:49:40.879Z,5.78
2019-04-16T11:51:46.491Z,6.22
2019-04-16T11:53:52.052Z,6.05
2019-04-16T11:55:57.589Z,5.83
2019-04-16T11:58:04.928Z,6.05
2019-04-16T12:00:17.676Z,7.80
2019-04-16T12:02:24.926Z,7.70
2019-04-16T12:04:48.192Z,5.30
2019-04-16T12:07:05.088Z,5.65
2019-04-16T12:09:26.991Z,6.90
2019-04-16T12:11:37.260Z,6.17
2019-04-16T12:14:04.077Z,5.80
2019-04-16T12:16:09.650Z,5.78
2019-04-16T12:18:22.591Z,85.38
2019-04-16T12:20:46.317Z,13.20
2019-04-16T12:23:09.908Z,11.70
2019-04-16T12:25:33.739Z,5.78
2019-04-16T12:27:57.320Z,142.33
2019-04-16T12:30:17.412Z,13.95
2019-04-16T12:32:41.233Z,4.85
2019-04-16T12:34:57.000Z,24.47
2019-04-16T12:37:20.504Z,16.00
2019-04-16T12:39:30.623Z,5.72
2019-04-16T12:41:37.811Z,5.70
2019-04-16T12:43:51.128Z,5.60
2019-04-16T12:46:07.015Z,25.32
2019-04-16T12:48:14.305Z,4.92
2019-04-16T12:50:33.717Z,7.90
2019-04-16T12:52:40.900Z,6.87
2019-04-16T12:54:48.064Z,14.07
2019-04-16T12:57:01.268Z,23.32
2019-04-16T12:59:22.117Z,6.80
2019-04-16T13:01:26.489Z,20.70
2019-04-16T13:03:46.602Z,7.55
2019-04-16T13:06:04.452Z,22.62
2019-04-16T13:08:17.109Z,7.83
2019-04-16T13:10:27.299Z,5.67
2019-04-16T13:12:37.509Z,8.48
2019-04-16T13:15:01.702Z,5.92
2019-04-16T13:17:23.134Z,4.70
2019-04-16T13:19:39.525Z,4.67
2019-04-16T13:21:49.656Z,4.87
2019-04-16T13:23:56.841Z,47.38
2019-04-16T13:26:11.863Z,11.53
2019-04-16T13:28:14.124Z,5.03
2019-04-16T13:30:19.773Z,4.03
2019-04-16T13:32:27.766Z,5.33
2019-04-16T13:34:33.645Z,6.87
2019-04-16T13:36:39.279Z,9.85
2019-04-16T13:39:02.909Z,4.22
2019-04-16T13:41:09.305Z,4.72
2019-04-16T13:43:25.471Z,7.78
2019-04-16T13:45:32.656Z,11.43
2019-04-16T13:47:48.626Z,5.33
2019-04-16T13:50:02.706Z,17.17
2019-04-16T13:52:05.821Z,8.85
2019-04-16T13:54:19.300Z,6.40
2019-04-16T13:56:26.595Z,9.13
2019-04-16T13:58:39.422Z,10.30
2019-04-16T14:00:46.580Z,15.65
2019-04-16T14:02:53.895Z,10.78
2019-04-16T14:05:03.136Z,8.63
2019-04-16T14:07:06.799Z,8.53
2019-04-16T14:09:12.814Z,7.53
2019-04-16T14:11:19.832Z,7.70
2019-04-16T14:13:25.715Z,6.87
2019-04-16T14:15:38.934Z,6.40
2019-04-16T14:17:51.850Z,5.75
2019-04-16T14:19:47.224Z,9.15
2019-04-16T14:21:52.836Z,7.35
2019-04-16T14:23:58.706Z,5.90
2019-04-16T14:26:04.360Z,8.10
2019-04-16T14:28:10.208Z,8.20
2019-04-16T14:30:18.569Z,11.75
2019-04-16T14:32:24.164Z,11.40
2019-04-16T14:34:34.366Z,5.78
2019-04-16T14:36:39.934Z,6.22
2019-04-16T14:38:55.924Z,13.13
2019-04-16T14:41:01.661Z,16.40
2019-04-16T14:43:07.270Z,5.92
2019-04-16T14:45:20.760Z,6.10
2019-04-16T14:47:26.297Z,6.08
2019-04-16T14:49:31.844Z,6.78
2019-04-16T14:51:37.362Z,8.63
2019-04-16T14:53:56.278Z,7.22
2019-04-16T14:56:03.445Z,9.83
2019-04-16T14:58:26.951Z,5.50
2019-04-16T15:00:51.177Z,5.10
2019-04-16T15:02:58.347Z,5.45
2019-04-16T15:05:09.886Z,5.67
2019-04-16T15:07:17.214Z,6.22
2019-04-16T15:09:27.333Z,6.25
2019-04-16T15:11:39.968Z,8.85
2019-04-16T15:13:47.164Z,9.38
2019-04-16T15:16:05.836Z,8.70
2019-04-16T15:18:18.536Z,6.45
2019-04-16T15:20:25.704Z,8.40
2019-04-16T15:22:35.584Z,10.75
2019-04-16T15:24:45.446Z,10.20
2019-04-16T15:26:58.558Z,6.80
2019-04-16T15:29:09.234Z,6.90
2019-04-16T15:31:19.203Z,15.25
2019-04-16T15:33:28.892Z,6.85
2019-04-16T15:35:38.642Z,7.33
2019-04-16T15:37:45.817Z,8.93
2019-04-16T15:40:07.029Z,12.30
2019-04-16T15:42:17.415Z,10.28
2019-04-16T15:44:31.669Z,9.08
2019-04-16T15:46:49.750Z,8.03
2019-04-16T15:49:09.319Z,10.45
2019-04-16T15:51:25.452Z,6.45
2019-04-16T15:53:38.337Z,6.53
2019-04-16T15:55:51.479Z,7.92
2019-04-16T15:58:17.059Z,7.58
2019-04-16T16:00:30.111Z,6.55
2019-04-16T16:02:55.356Z,19.27
2019-04-16T16:05:02.510Z,24.75
2019-04-16T16:07:09.222Z,24.27
2019-04-16T16:09:19.452Z,11.03
2019-04-16T16:11:38.503Z,6.97
2019-04-16T16:13:44.030Z,6.50
2019-04-16T16:15:50.665Z,6.65
2019-04-16T16:17:56.232Z,6.85
2019-04-16T16:20:01.774Z,6.92
2019-04-16T16:22:11.064Z,7.75
2019-04-16T16:24:15.139Z,7.00
2019-04-16T16:26:20.665Z,6.75
2019-04-16T16:28:26.376Z,5.70
2019-04-16T16:30:31.970Z,6.08
2019-04-16T16:32:37.597Z,6.55
2019-04-16T16:34:43.208Z,5.60
2019-04-16T16:36:48.853Z,5.53
2019-04-16T16:38:54.430Z,6.08
2019-04-16T16:41:00.042Z,6.33
2019-04-16T16:43:08.185Z,7.55
2019-04-16T16:45:12.975Z,7.53
2019-04-16T16:47:20.425Z,7.60
2019-04-16T16:49:26.084Z,8.03
2019-04-16T16:51:31.748Z,8.28
2019-04-16T16:53:38.980Z,9.40
2019-04-16T16:55:46.144Z,10.90
2019-04-16T16:57:53.401Z,19.23
2019-04-16T17:00:16.605Z,106.87
2019-04-16T17:02:38.984Z,26.80
2019-04-16T17:04:48.825Z,18.92
2019-04-16T17:06:54.402Z,16.32
2019-04-16T17:08:59.943Z,15.38
2019-04-16T17:11:15.520Z,13.93
2019-04-16T17:13:14.660Z,13.13
2019-04-16T17:15:20.233Z,13.32
2019-04-16T17:17:25.773Z,12.18
2019-04-16T17:19:31.309Z,11.55
2019-04-16T17:21:36.904Z,10.85
2019-04-16T17:23:42.585Z,10.00
2019-04-16T17:25:48.122Z,10.25
2019-04-16T17:27:53.725Z,9.38
2019-04-16T17:29:59.279Z,9.58
2019-04-16T17:32:05.046Z,10.50
2019-04-16T17:34:10.663Z,10.30
2019-04-16T17:36:16.208Z,10.85
2019-04-16T17:38:21.768Z,10.63
2019-04-16T17:40:43.974Z,10.38
2019-04-16T17:42:51.145Z,11.48
2019-04-16T17:44:58.292Z,12.75
2019-04-16T17:47:05.465Z,13.68
2019-04-16T17:49:28.767Z,16.65
2019-04-16T17:51:53.866Z,17.12
2019-04-16T17:54:10.262Z,21.87
2019-04-16T17:56:35.561Z,23.57
2019-04-16T17:58:54.971Z,22.82
2019-04-16T18:01:02.254Z,28.07
2019-04-16T18:03:18.421Z,35.23
2019-04-16T18:05:28.635Z,40.88
2019-04-16T18:07:38.616Z,19.35
2019-04-16T18:10:02.206Z,19.10
2019-04-16T18:12:11.432Z,20.20
2019-04-16T18:14:35.045Z,16.62
2019-04-16T18:16:42.306Z,15.58
2019-04-16T18:19:07.642Z,15.98
2019-04-16T18:21:14.941Z,24.00
2019-04-16T18:23:31.148Z,47.75
2019-04-16T18:25:56.652Z,78.10
2019-04-16T18:28:09.592Z,65.70
2019-04-16T18:30:25.681Z,70.15
2019-04-16T18:32:32.916Z,50.58
2019-04-16T18:34:56.368Z,74.12
2019-04-16T18:37:15.200Z,99.07
2019-04-16T18:39:38.544Z,86.57
2019-04-16T18:41:48.760Z,31.87
2019-04-16T18:44:11.187Z,27.40
2019-04-16T18:46:18.343Z,20.25
2019-04-16T18:48:25.541Z,21.02
2019-04-16T18:50:31.166Z,25.17
2019-04-16T18:52:37.651Z,28.70
2019-04-16T18:54:46.061Z,28.60
2019-04-16T18:56:50.351Z,34.65
2019-04-16T18:58:55.937Z,44.45
2019-04-16T19:01:03.106Z,58.38
2019-04-16T19:03:14.528Z,46.95
2019-04-16T19:05:16.164Z,39.50
2019-04-16T19:07:21.763Z,50.00
2019-04-16T19:09:27.385Z,58.50
2019-04-16T19:11:32.984Z,33.25
2019-04-16T19:13:38.564Z,42.43
2019-04-16T19:15:44.104Z,35.78
2019-04-16T19:17:49.704Z,24.60
2019-04-16T19:19:55.269Z,28.52
2019-04-16T19:22:00.969Z,20.35
2019-04-16T19:24:06.497Z,46.55
2019-04-16T19:26:12.061Z,73.83
2019-04-16T19:28:20.160Z,30.97
2019-04-16T19:30:24.869Z,68.12
2019-04-16T19:32:30.451Z,125.80
2019-04-16T19:34:40.909Z,96.70
2019-04-16T19:36:43.366Z,71.00
2019-04-16T19:38:48.948Z,73.60
2019-04-16T19:40:54.743Z,118.25
2019-04-16T19:43:02.542Z,67.00
2019-04-16T19:45:08.945Z,45.30
2019-04-16T19:47:14.834Z,32.00
2019-04-16T19:49:20.359Z,34.88
2019-04-16T19:51:25.913Z,36.20
2019-04-16T19:53:31.442Z,35.13
2019-04-16T19:55:36.980Z,40.15
2019-04-16T19:57:42.532Z,36.75
2019-04-16T19:59:48.135Z,61.75
2019-04-16T20:01:55.792Z,69.37
2019-04-16T20:04:01.065Z,51.48
2019-04-16T20:06:06.699Z,44.58
2019-04-16T20:08:12.289Z,47.20
2019-04-16T20:10:17.997Z,51.30
2019-04-16T20:12:25.100Z,53.23
2019-04-16T20:14:35.349Z,55.12
2019-04-16T20:16:38.001Z,47.20
2019-04-16T20:18:50.804Z,43.05
2019-04-16T20:20:50.877Z,39.88
2019-04-16T20:22:57.416Z,49.42
2019-04-16T20:25:02.935Z,51.70
2019-04-16T20:27:08.455Z,61.45
2019-04-16T20:29:14.072Z,53.40
2019-04-16T20:31:19.602Z,87.45
2019-04-16T20:33:25.135Z,56.70
2019-04-16T20:35:31.118Z,52.00
2019-04-16T20:37:36.631Z,53.65
2019-04-16T20:39:42.257Z,43.30
2019-04-16T20:41:52.771Z,35.65
2019-04-16T20:43:56.389Z,31.77
2019-04-16T20:46:01.923Z,33.78
2019-04-16T20:48:09.429Z,27.93
2019-04-16T20:50:14.740Z,28.85
2019-04-16T20:52:20.283Z,33.08
2019-04-16T20:54:25.788Z,32.10
2019-04-16T20:56:31.330Z,35.58
2019-04-16T20:58:36.852Z,28.77
2019-04-16T21:00:44.025Z,31.00
2019-04-16T21:02:51.156Z,33.85
2019-04-16T21:04:58.274Z,30.48
2019-04-16T21:07:03.937Z,43.30
2019-04-16T21:09:10.471Z,34.95
2019-04-16T21:11:17.076Z,30.77
2019-04-16T21:13:22.604Z,44.70
2019-04-16T21:15:28.388Z,38.42
2019-04-16T21:17:38.167Z,38.13
2019-04-16T21:19:46.452Z,40.05
2019-04-16T21:21:55.291Z,45.55
2019-04-16T21:23:59.122Z,49.25
2019-04-16T21:26:04.704Z,123.42
2019-04-16T21:28:17.685Z,126.70
2019-04-16T21:30:23.482Z,109.32
2019-04-16T21:32:39.762Z,64.42
2019-04-16T21:34:49.665Z,45.00
2019-04-16T21:37:13.895Z,45.23
2019-04-16T21:39:29.828Z,52.58
2019-04-16T21:41:35.423Z,76.72
2019-04-16T21:43:40.989Z,57.40
2019-04-16T21:45:48.310Z,52.93
2019-04-16T21:47:55.160Z,61.40
2019-04-16T21:50:00.957Z,60.05
2019-04-16T21:52:09.109Z,67.30
2019-04-16T21:54:14.668Z,64.70
2019-04-16T21:56:20.198Z,56.80
2019-04-16T21:58:25.726Z,51.37
2019-04-16T22:00:39.656Z,42.67
2019-04-16T22:02:46.905Z,43.92
2019-04-16T22:04:52.643Z,33.05
2019-04-16T22:06:58.290Z,29.82
2019-04-16T22:09:05.477Z,32.13
2019-04-16T22:11:12.672Z,34.60
2019-04-16T22:13:19.368Z,36.88
2019-04-16T22:15:26.106Z,39.98
2019-04-16T22:17:35.508Z,40.30
2019-04-16T22:19:53.196Z,31.85
2019-04-16T22:21:46.104Z,31.77
2019-04-16T22:23:51.696Z,26.12
2019-04-16T22:26:01.430Z,18.55
2019-04-16T22:28:08.496Z,15.88
2019-04-16T22:30:13.001Z,13.80
2019-04-16T22:32:18.539Z,13.18
2019-04-16T22:34:24.126Z,12.50
2019-04-16T22:36:29.660Z,12.98
2019-04-16T22:38:36.368Z,12.68
2019-04-16T22:40:51.693Z,11.48
2019-04-16T22:43:06.969Z,13.18
2019-04-16T22:45:19.201Z,13.40
2019-04-16T22:47:29.140Z,11.50
2019-04-16T22:49:34.687Z,11.85
2019-04-16T22:51:43.173Z,12.37
2019-04-16T22:53:49.524Z,11.70
2019-04-16T22:55:56.749Z,11.68
2019-04-16T22:58:03.525Z,8.70
2019-04-16T23:00:12.845Z,9.53
2019-04-16T23:02:27.126Z,9.28
2019-04-16T23:04:32.653Z,8.43
2019-04-16T23:06:39.016Z,7.62
2019-04-16T23:08:44.556Z,7.58
2019-04-16T23:10:51.721Z,9.10
2019-04-16T23:13:00.323Z,8.20
2019-04-16T23:15:07.916Z,8.38
2019-04-16T23:17:14.333Z,7.35
2019-04-16T23:19:21.199Z,8.45
2019-04-16T23:21:26.856Z,7.72
2019-04-16T23:23:32.387Z,8.23
2019-04-16T23:25:37.954Z,8.28
2019-04-16T23:27:43.457Z,7.78
2019-04-16T23:29:49.173Z,8.15
2019-04-16T23:31:56.071Z,7.67
2019-04-16T23:34:05.073Z,8.45
2019-04-16T23:36:15.331Z,8.03
2019-04-16T23:38:18.195Z,7.80
2019-04-16T23:40:23.705Z,8.00
2019-04-16T23:42:30.860Z,8.35
2019-04-16T23:44:40.840Z,8.00
2019-04-16T23:46:47.983Z,8.45
2019-04-16T23:48:57.889Z,8.90
2019-04-16T23:51:11.089Z,9.75
2019-04-16T23:53:24.013Z,9.55
2019-04-16T23:55:40.101Z,10.75
2019-04-16T23:57:50.016Z,9.08
